sensor_id;sensor_type;location;lat;lon;timestamp;P1;durP1;ratioP1;P2;durP2;ratioP2
12812;SDS011;6471;50.932;6.934;2022-12-07T00:01:31;15.37;;;10.70;;
12812;SDS011;6471;50.932;6.934;2022-12-07T00:03:58;14.43;;;10.20;;
12812;SDS011;6471;50.932;6.934;2022-12-07T00:06:37;18.43;;;12.43;;
12812;SDS011;6471;50.932;6.934;2022-12-07T00:09:04;15.67;;;10.63;;
12812;SDS011;6471;50.932;6.934;2022-12-07T00:11:31;15.00;;;10.97;;
12812;SDS011;6471;50.932;6.934;2022-12-07T00:14:04;16.17;;;11.20;;
12812;SDS011;6471;50.932;6.934;2022-12-07T00:16:34;14.87;;;10.70;;
12812;SDS011;6471;50.932;6.934;2022-12-07T00:19:12;14.27;;;10.10;;
12812;SDS011;6471;50.932;6.934;2022-12-07T00:21:47;15.60;;;10.70;;
12812;SDS011;6471;50.932;6.934;2022-12-07T00:24:25;15.97;;;10.60;;
12812;SDS011;6471;50.932;6.934;2022-12-07T00:26:54;13.50;;;9.90;;
12812;SDS011;6471;50.932;6.934;2022-12-07T00:29:20;15.83;;;10.17;;
12812;SDS011;6471;50.932;6.934;2022-12-07T00:31:50;16.13;;;10.27;;
12812;SDS011;6471;50.932;6.934;2022-12-07T00:34:19;17.07;;;11.20;;
12812;SDS011;6471;50.932;6.934;2022-12-07T00:36:45;16.40;;;11.13;;
12812;SDS011;6471;50.932;6.934;2022-12-07T00:39:11;14.23;;;9.87;;
12812;SDS011;6471;50.932;6.934;2022-12-07T00:41:37;16.93;;;11.53;;
12812;SDS011;6471;50.932;6.934;2022-12-07T00:44:04;15.03;;;10.87;;
12812;SDS011;6471;50.932;6.934;2022-12-07T00:46:48;15.20;;;10.67;;
12812;SDS011;6471;50.932;6.934;2022-12-07T00:49:17;15.03;;;10.57;;
12812;SDS011;6471;50.932;6.934;2022-12-07T00:51:43;17.97;;;11.20;;
12812;SDS011;6471;50.932;6.934;2022-12-07T00:54:09;15.33;;;10.07;;
12812;SDS011;6471;50.932;6.934;2022-12-07T00:56:35;14.73;;;10.40;;
12812;SDS011;6471;50.932;6.934;2022-12-07T00:59:02;15.10;;;9.67;;
12812;SDS011;6471;50.932;6.934;2022-12-07T01:01:30;13.17;;;10.03;;
12812;SDS011;6471;50.932;6.934;2022-12-07T01:03:57;15.30;;;10.50;;
12812;SDS011;6471;50.932;6.934;2022-12-07T01:06:23;13.87;;;10.13;;
12812;SDS011;6471;50.932;6.934;2022-12-07T01:08:49;17.27;;;11.17;;
12812;SDS011;6471;50.932;6.934;2022-12-07T01:11:16;17.83;;;12.17;;
12812;SDS011;6471;50.932;6.934;2022-12-07T01:13:43;17.73;;;11.73;;
12812;SDS011;6471;50.932;6.934;2022-12-07T01:16:11;18.17;;;11.93;;
12812;SDS011;6471;50.932;6.934;2022-12-07T01:18:37;17.33;;;12.13;;
12812;SDS011;6471;50.932;6.934;2022-12-07T01:21:08;17.13;;;11.90;;
12812;SDS011;6471;50.932;6.934;2022-12-07T01:23:35;15.97;;;11.33;;
12812;SDS011;6471;50.932;6.934;2022-12-07T01:26:02;15.17;;;10.87;;
12812;SDS011;6471;50.932;6.934;2022-12-07T01:28:32;16.63;;;10.93;;
12812;SDS011;6471;50.932;6.934;2022-12-07T01:31:02;17.33;;;11.43;;
12812;SDS011;6471;50.932;6.934;2022-12-07T01:33:29;18.73;;;12.93;;
12812;SDS011;6471;50.932;6.934;2022-12-07T01:36:04;19.93;;;13.03;;
12812;SDS011;6471;50.932;6.934;2022-12-07T01:38:31;18.57;;;13.17;;
12812;SDS011;6471;50.932;6.934;2022-12-07T01:40:58;18.43;;;12.13;;
12812;SDS011;6471;50.932;6.934;2022-12-07T01:43:24;19.10;;;13.67;;
12812;SDS011;6471;50.932;6.934;2022-12-07T01:45:51;21.33;;;13.67;;
12812;SDS011;6471;50.932;6.934;2022-12-07T01:48:29;20.77;;;13.70;;
12812;SDS011;6471;50.932;6.934;2022-12-07T01:50:56;19.30;;;12.53;;
12812;SDS011;6471;50.932;6.934;2022-12-07T01:53:26;18.33;;;12.50;;
12812;SDS011;6471;50.932;6.934;2022-12-07T01:55:54;18.80;;;12.30;;
12812;SDS011;6471;50.932;6.934;2022-12-07T01:58:21;16.90;;;11.93;;
12812;SDS011;6471;50.932;6.934;2022-12-07T02:00:47;18.00;;;12.53;;
12812;SDS011;6471;50.932;6.934;2022-12-07T02:03:16;19.53;;;12.30;;
12812;SDS011;6471;50.932;6.934;2022-12-07T02:05:44;17.20;;;12.33;;
12812;SDS011;6471;50.932;6.934;2022-12-07T02:08:10;15.80;;;11.17;;
12812;SDS011;6471;50.932;6.934;2022-12-07T02:10:38;16.83;;;11.87;;
12812;SDS011;6471;50.932;6.934;2022-12-07T02:13:06;18.13;;;12.37;;
12812;SDS011;6471;50.932;6.934;2022-12-07T02:23:41;18.70;;;12.50;;
12812;SDS011;6471;50.932;6.934;2022-12-07T02:26:16;17.17;;;11.63;;
12812;SDS011;6471;50.932;6.934;2022-12-07T02:29:04;16.70;;;11.10;;
12812;SDS011;6471;50.932;6.934;2022-12-07T02:31:36;15.70;;;11.13;;
12812;SDS011;6471;50.932;6.934;2022-12-07T02:34:11;14.80;;;11.03;;
12812;SDS011;6471;50.932;6.934;2022-12-07T02:36:39;15.97;;;11.93;;
12812;SDS011;6471;50.932;6.934;2022-12-07T02:41:36;17.23;;;11.43;;
12812;SDS011;6471;50.932;6.934;2022-12-07T02:44:04;14.93;;;10.83;;
12812;SDS011;6471;50.932;6.934;2022-12-07T02:46:34;17.93;;;12.33;;
12812;SDS011;6471;50.932;6.934;2022-12-07T02:49:00;19.70;;;12.53;;
12812;SDS011;6471;50.932;6.934;2022-12-07T02:51:29;19.37;;;12.07;;
12812;SDS011;6471;50.932;6.934;2022-12-07T02:53:56;15.33;;;11.40;;
12812;SDS011;6471;50.932;6.934;2022-12-07T02:56:26;13.93;;;10.60;;
12812;SDS011;6471;50.932;6.934;2022-12-07T03:01:28;17.70;;;11.60;;
12812;SDS011;6471;50.932;6.934;2022-12-07T03:03:59;16.90;;;12.47;;
12812;SDS011;6471;50.932;6.934;2022-12-07T03:06:31;19.00;;;13.07;;
12812;SDS011;6471;50.932;6.934;2022-12-07T03:09:01;18.63;;;12.90;;
12812;SDS011;6471;50.932;6.934;2022-12-07T03:11:32;19.47;;;12.70;;
12812;SDS011;6471;50.932;6.934;2022-12-07T03:13:59;21.93;;;12.93;;
12812;SDS011;6471;50.932;6.934;2022-12-07T03:19:36;18.10;;;12.23;;
12812;SDS011;6471;50.932;6.934;2022-12-07T03:22:04;17.27;;;11.77;;
12812;SDS011;6471;50.932;6.934;2022-12-07T03:24:33;18.53;;;11.97;;
12812;SDS011;6471;50.932;6.934;2022-12-07T03:27:05;18.47;;;12.70;;
12812;SDS011;6471;50.932;6.934;2022-12-07T03:29:34;19.50;;;12.97;;
12812;SDS011;6471;50.932;6.934;2022-12-07T03:32:06;19.27;;;12.30;;
12812;SDS011;6471;50.932;6.934;2022-12-07T03:34:57;16.77;;;12.57;;
12812;SDS011;6471;50.932;6.934;2022-12-07T03:42:47;20.00;;;13.50;;
12812;SDS011;6471;50.932;6.934;2022-12-07T03:45:16;16.97;;;12.67;;
12812;SDS011;6471;50.932;6.934;2022-12-07T03:47:45;21.17;;;14.30;;
12812;SDS011;6471;50.932;6.934;2022-12-07T03:50:17;20.07;;;13.37;;
12812;SDS011;6471;50.932;6.934;2022-12-07T03:52:58;18.87;;;13.33;;
12812;SDS011;6471;50.932;6.934;2022-12-07T03:55:28;20.07;;;13.47;;
12812;SDS011;6471;50.932;6.934;2022-12-07T03:58:03;17.90;;;13.23;;
12812;SDS011;6471;50.932;6.934;2022-12-07T04:00:37;19.17;;;13.43;;
12812;SDS011;6471;50.932;6.934;2022-12-07T04:03:03;19.07;;;12.73;;
12812;SDS011;6471;50.932;6.934;2022-12-07T04:05:29;20.30;;;12.93;;
12812;SDS011;6471;50.932;6.934;2022-12-07T04:07:55;19.43;;;13.20;;
12812;SDS011;6471;50.932;6.934;2022-12-07T04:10:24;20.63;;;12.80;;
12812;SDS011;6471;50.932;6.934;2022-12-07T04:12:50;19.70;;;13.50;;
12812;SDS011;6471;50.932;6.934;2022-12-07T04:15:16;17.70;;;11.90;;
12812;SDS011;6471;50.932;6.934;2022-12-07T04:17:43;17.77;;;12.03;;
12812;SDS011;6471;50.932;6.934;2022-12-07T04:20:09;20.20;;;12.43;;
12812;SDS011;6471;50.932;6.934;2022-12-07T04:22:35;19.10;;;12.90;;
12812;SDS011;6471;50.932;6.934;2022-12-07T04:25:01;18.63;;;12.57;;
12812;SDS011;6471;50.932;6.934;2022-12-07T04:27:27;15.43;;;11.47;;
12812;SDS011;6471;50.932;6.934;2022-12-07T04:29:56;19.53;;;12.33;;
12812;SDS011;6471;50.932;6.934;2022-12-07T04:32:23;22.33;;;13.23;;
12812;SDS011;6471;50.932;6.934;2022-12-07T04:34:49;18.83;;;12.47;;
12812;SDS011;6471;50.932;6.934;2022-12-07T04:37:15;17.30;;;12.27;;
12812;SDS011;6471;50.932;6.934;2022-12-07T04:39:42;17.97;;;11.90;;
12812;SDS011;6471;50.932;6.934;2022-12-07T04:42:09;19.90;;;13.27;;
12812;SDS011;6471;50.932;6.934;2022-12-07T04:44:36;18.43;;;12.00;;
12812;SDS011;6471;50.932;6.934;2022-12-07T04:47:02;16.00;;;11.50;;
12812;SDS011;6471;50.932;6.934;2022-12-07T04:49:28;16.40;;;11.43;;
12812;SDS011;6471;50.932;6.934;2022-12-07T04:51:54;15.13;;;11.00;;
12812;SDS011;6471;50.932;6.934;2022-12-07T04:54:36;18.50;;;11.90;;
12812;SDS011;6471;50.932;6.934;2022-12-07T04:57:11;15.00;;;10.37;;
12812;SDS011;6471;50.932;6.934;2022-12-07T04:59:40;17.07;;;12.00;;
12812;SDS011;6471;50.932;6.934;2022-12-07T05:02:06;19.30;;;11.50;;
12812;SDS011;6471;50.932;6.934;2022-12-07T05:04:32;19.97;;;13.30;;
12812;SDS011;6471;50.932;6.934;2022-12-07T05:06:58;17.07;;;11.80;;
12812;SDS011;6471;50.932;6.934;2022-12-07T05:09:24;18.80;;;12.43;;
12812;SDS011;6471;50.932;6.934;2022-12-07T05:11:50;18.07;;;12.20;;
12812;SDS011;6471;50.932;6.934;2022-12-07T05:14:18;21.10;;;13.03;;
12812;SDS011;6471;50.932;6.934;2022-12-07T05:16:45;15.67;;;11.70;;
12812;SDS011;6471;50.932;6.934;2022-12-07T05:19:12;21.83;;;13.00;;
12812;SDS011;6471;50.932;6.934;2022-12-07T05:21:38;18.80;;;12.30;;
12812;SDS011;6471;50.932;6.934;2022-12-07T05:24:05;17.13;;;11.20;;
12812;SDS011;6471;50.932;6.934;2022-12-07T05:26:31;16.40;;;11.30;;
12812;SDS011;6471;50.932;6.934;2022-12-07T05:28:57;17.37;;;11.40;;
12812;SDS011;6471;50.932;6.934;2022-12-07T05:31:24;17.97;;;12.00;;
12812;SDS011;6471;50.932;6.934;2022-12-07T05:33:50;17.50;;;11.40;;
12812;SDS011;6471;50.932;6.934;2022-12-07T05:36:23;18.27;;;12.70;;
12812;SDS011;6471;50.932;6.934;2022-12-07T05:38:53;19.00;;;12.30;;
12812;SDS011;6471;50.932;6.934;2022-12-07T05:41:19;18.33;;;12.60;;
12812;SDS011;6471;50.932;6.934;2022-12-07T05:44:04;18.23;;;11.50;;
12812;SDS011;6471;50.932;6.934;2022-12-07T05:46:36;16.70;;;10.87;;
12812;SDS011;6471;50.932;6.934;2022-12-07T05:49:02;18.93;;;12.10;;
12812;SDS011;6471;50.932;6.934;2022-12-07T05:51:28;20.03;;;12.17;;
12812;SDS011;6471;50.932;6.934;2022-12-07T05:53:54;17.77;;;12.40;;
12812;SDS011;6471;50.932;6.934;2022-12-07T05:56:21;16.40;;;11.63;;
12812;SDS011;6471;50.932;6.934;2022-12-07T05:58:48;17.20;;;11.90;;
12812;SDS011;6471;50.932;6.934;2022-12-07T06:01:32;16.17;;;10.50;;
12812;SDS011;6471;50.932;6.934;2022-12-07T06:03:58;16.13;;;11.60;;
12812;SDS011;6471;50.932;6.934;2022-12-07T06:06:25;17.10;;;12.03;;
12812;SDS011;6471;50.932;6.934;2022-12-07T06:08:51;16.57;;;11.83;;
12812;SDS011;6471;50.932;6.934;2022-12-07T06:11:17;19.33;;;12.43;;
12812;SDS011;6471;50.932;6.934;2022-12-07T06:14:02;21.57;;;13.30;;
12812;SDS011;6471;50.932;6.934;2022-12-07T06:16:28;17.77;;;12.37;;
12812;SDS011;6471;50.932;6.934;2022-12-07T06:18:54;18.80;;;12.27;;
12812;SDS011;6471;50.932;6.934;2022-12-07T06:21:20;17.50;;;12.57;;
12812;SDS011;6471;50.932;6.934;2022-12-07T06:23:46;18.10;;;11.17;;
12812;SDS011;6471;50.932;6.934;2022-12-07T06:26:13;18.50;;;12.20;;
12812;SDS011;6471;50.932;6.934;2022-12-07T06:28:39;19.17;;;13.73;;
12812;SDS011;6471;50.932;6.934;2022-12-07T06:31:05;18.77;;;12.83;;
12812;SDS011;6471;50.932;6.934;2022-12-07T06:33:32;18.23;;;13.13;;
12812;SDS011;6471;50.932;6.934;2022-12-07T06:35:58;17.23;;;12.00;;
12812;SDS011;6471;50.932;6.934;2022-12-07T06:38:24;16.47;;;11.43;;
12812;SDS011;6471;50.932;6.934;2022-12-07T06:40:50;19.20;;;12.70;;
12812;SDS011;6471;50.932;6.934;2022-12-07T06:43:16;17.37;;;12.17;;
12812;SDS011;6471;50.932;6.934;2022-12-07T06:45:42;16.27;;;11.10;;
12812;SDS011;6471;50.932;6.934;2022-12-07T06:48:08;15.30;;;10.90;;
12812;SDS011;6471;50.932;6.934;2022-12-07T06:50:35;19.53;;;11.43;;
12812;SDS011;6471;50.932;6.934;2022-12-07T06:53:01;23.57;;;13.90;;
12812;SDS011;6471;50.932;6.934;2022-12-07T06:55:27;19.57;;;12.73;;
12812;SDS011;6471;50.932;6.934;2022-12-07T06:57:53;14.83;;;11.17;;
12812;SDS011;6471;50.932;6.934;2022-12-07T07:00:22;16.73;;;11.17;;
12812;SDS011;6471;50.932;6.934;2022-12-07T07:02:48;16.27;;;11.23;;
12812;SDS011;6471;50.932;6.934;2022-12-07T07:05:14;15.20;;;10.87;;
12812;SDS011;6471;50.932;6.934;2022-12-07T07:07:48;16.17;;;10.80;;
12812;SDS011;6471;50.932;6.934;2022-12-07T07:10:15;17.43;;;10.97;;
12812;SDS011;6471;50.932;6.934;2022-12-07T07:12:41;15.60;;;10.17;;
12812;SDS011;6471;50.932;6.934;2022-12-07T07:15:07;14.37;;;10.63;;
12812;SDS011;6471;50.932;6.934;2022-12-07T07:17:34;12.43;;;9.17;;
12812;SDS011;6471;50.932;6.934;2022-12-07T07:20:00;12.70;;;9.30;;
12812;SDS011;6471;50.932;6.934;2022-12-07T07:22:26;11.67;;;8.80;;
12812;SDS011;6471;50.932;6.934;2022-12-07T07:24:52;13.03;;;9.20;;
12812;SDS011;6471;50.932;6.934;2022-12-07T07:27:18;15.47;;;10.83;;
12812;SDS011;6471;50.932;6.934;2022-12-07T07:29:45;16.00;;;10.33;;
12812;SDS011;6471;50.932;6.934;2022-12-07T07:32:11;14.23;;;10.47;;
12812;SDS011;6471;50.932;6.934;2022-12-07T07:34:39;12.70;;;9.53;;
12812;SDS011;6471;50.932;6.934;2022-12-07T07:37:05;15.63;;;9.80;;
12812;SDS011;6471;50.932;6.934;2022-12-07T07:39:32;14.57;;;9.83;;
12812;SDS011;6471;50.932;6.934;2022-12-07T07:41:58;15.53;;;10.40;;
12812;SDS011;6471;50.932;6.934;2022-12-07T07:44:24;13.63;;;9.50;;
12812;SDS011;6471;50.932;6.934;2022-12-07T07:46:50;12.93;;;9.70;;
12812;SDS011;6471;50.932;6.934;2022-12-07T07:52:01;17.80;;;12.73;;
12812;SDS011;6471;50.932;6.934;2022-12-07T07:54:27;14.30;;;10.70;;
12812;SDS011;6471;50.932;6.934;2022-12-07T07:57:02;16.40;;;11.33;;
12812;SDS011;6471;50.932;6.934;2022-12-07T07:59:28;15.63;;;11.10;;
12812;SDS011;6471;50.932;6.934;2022-12-07T08:01:54;13.20;;;9.07;;
12812;SDS011;6471;50.932;6.934;2022-12-07T08:04:20;13.90;;;9.90;;
12812;SDS011;6471;50.932;6.934;2022-12-07T08:06:46;12.10;;;9.20;;
12812;SDS011;6471;50.932;6.934;2022-12-07T08:09:12;17.73;;;11.13;;
12812;SDS011;6471;50.932;6.934;2022-12-07T08:11:42;15.70;;;10.83;;
12812;SDS011;6471;50.932;6.934;2022-12-07T08:14:12;13.97;;;10.20;;
12812;SDS011;6471;50.932;6.934;2022-12-07T08:16:43;15.03;;;10.30;;
12812;SDS011;6471;50.932;6.934;2022-12-07T08:19:16;14.27;;;10.40;;
12812;SDS011;6471;50.932;6.934;2022-12-07T08:21:44;13.43;;;9.60;;
12812;SDS011;6471;50.932;6.934;2022-12-07T08:24:11;13.40;;;9.47;;
12812;SDS011;6471;50.932;6.934;2022-12-07T08:26:37;16.30;;;10.77;;
12812;SDS011;6471;50.932;6.934;2022-12-07T08:29:06;13.30;;;9.83;;
12812;SDS011;6471;50.932;6.934;2022-12-07T08:31:35;15.13;;;11.03;;
12812;SDS011;6471;50.932;6.934;2022-12-07T08:34:02;15.33;;;10.50;;
12812;SDS011;6471;50.932;6.934;2022-12-07T08:36:28;18.13;;;12.40;;
12812;SDS011;6471;50.932;6.934;2022-12-07T08:38:54;16.07;;;11.23;;
12812;SDS011;6471;50.932;6.934;2022-12-07T08:41:20;15.37;;;11.20;;
12812;SDS011;6471;50.932;6.934;2022-12-07T08:43:46;17.43;;;11.43;;
12812;SDS011;6471;50.932;6.934;2022-12-07T08:46:25;17.17;;;10.33;;
12812;SDS011;6471;50.932;6.934;2022-12-07T08:49:07;15.27;;;11.10;;
12812;SDS011;6471;50.932;6.934;2022-12-07T08:51:35;16.30;;;10.40;;
12812;SDS011;6471;50.932;6.934;2022-12-07T08:54:02;12.50;;;9.43;;
12812;SDS011;6471;50.932;6.934;2022-12-07T08:56:30;15.83;;;10.37;;
12812;SDS011;6471;50.932;6.934;2022-12-07T08:58:56;14.90;;;10.03;;
12812;SDS011;6471;50.932;6.934;2022-12-07T09:01:23;14.33;;;9.50;;
12812;SDS011;6471;50.932;6.934;2022-12-07T09:03:49;14.53;;;9.40;;
12812;SDS011;6471;50.932;6.934;2022-12-07T09:06:18;13.37;;;8.63;;
12812;SDS011;6471;50.932;6.934;2022-12-07T09:08:45;12.17;;;7.80;;
12812;SDS011;6471;50.932;6.934;2022-12-07T09:11:12;12.70;;;8.77;;
12812;SDS011;6471;50.932;6.934;2022-12-07T09:13:41;12.07;;;8.10;;
12812;SDS011;6471;50.932;6.934;2022-12-07T09:16:07;13.03;;;8.47;;
12812;SDS011;6471;50.932;6.934;2022-12-07T09:18:33;11.23;;;7.60;;
12812;SDS011;6471;50.932;6.934;2022-12-07T09:21:03;12.60;;;8.63;;
12812;SDS011;6471;50.932;6.934;2022-12-07T09:23:29;13.97;;;8.97;;
12812;SDS011;6471;50.932;6.934;2022-12-07T09:25:58;12.83;;;7.73;;
12812;SDS011;6471;50.932;6.934;2022-12-07T09:28:25;14.30;;;8.07;;
12812;SDS011;6471;50.932;6.934;2022-12-07T09:30:51;11.70;;;7.97;;
12812;SDS011;6471;50.932;6.934;2022-12-07T09:33:17;11.33;;;8.00;;
12812;SDS011;6471;50.932;6.934;2022-12-07T09:35:46;13.37;;;7.83;;
12812;SDS011;6471;50.932;6.934;2022-12-07T09:38:13;10.90;;;7.37;;
12812;SDS011;6471;50.932;6.934;2022-12-07T09:40:39;10.77;;;7.20;;
12812;SDS011;6471;50.932;6.934;2022-12-07T09:43:08;8.97;;;6.80;;
12812;SDS011;6471;50.932;6.934;2022-12-07T09:45:37;12.90;;;7.60;;
12812;SDS011;6471;50.932;6.934;2022-12-07T09:48:04;11.07;;;7.43;;
12812;SDS011;6471;50.932;6.934;2022-12-07T09:50:30;10.93;;;7.53;;
12812;SDS011;6471;50.932;6.934;2022-12-07T09:53:30;13.17;;;6.73;;
12812;SDS011;6471;50.932;6.934;2022-12-07T09:55:48;11.13;;;6.70;;
12812;SDS011;6471;50.932;6.934;2022-12-07T09:58:19;10.13;;;7.37;;
12812;SDS011;6471;50.932;6.934;2022-12-07T10:00:46;11.33;;;7.30;;
12812;SDS011;6471;50.932;6.934;2022-12-07T10:03:12;8.97;;;6.50;;
12812;SDS011;6471;50.932;6.934;2022-12-07T10:05:40;11.57;;;7.37;;
12812;SDS011;6471;50.932;6.934;2022-12-07T10:08:08;9.60;;;6.30;;
12812;SDS011;6471;50.932;6.934;2022-12-07T10:10:36;11.07;;;6.60;;
12812;SDS011;6471;50.932;6.934;2022-12-07T10:15:41;8.90;;;6.17;;
12812;SDS011;6471;50.932;6.934;2022-12-07T10:18:18;10.87;;;6.43;;
12812;SDS011;6471;50.932;6.934;2022-12-07T10:20:45;10.73;;;6.63;;
12812;SDS011;6471;50.932;6.934;2022-12-07T10:23:16;9.87;;;6.23;;
12812;SDS011;6471;50.932;6.934;2022-12-07T10:25:45;11.27;;;6.37;;
12812;SDS011;6471;50.932;6.934;2022-12-07T10:28:17;9.50;;;6.40;;
12812;SDS011;6471;50.932;6.934;2022-12-07T10:33:34;11.37;;;6.10;;
12812;SDS011;6471;50.932;6.934;2022-12-07T10:36:00;10.07;;;6.27;;
12812;SDS011;6471;50.932;6.934;2022-12-07T10:38:27;8.93;;;5.67;;
12812;SDS011;6471;50.932;6.934;2022-12-07T10:41:04;8.93;;;6.23;;
12812;SDS011;6471;50.932;6.934;2022-12-07T10:43:30;11.27;;;6.70;;
12812;SDS011;6471;50.932;6.934;2022-12-07T10:46:10;12.80;;;6.67;;
12812;SDS011;6471;50.932;6.934;2022-12-07T10:48:50;12.40;;;7.47;;
12812;SDS011;6471;50.932;6.934;2022-12-07T10:53:46;10.87;;;6.27;;
12812;SDS011;6471;50.932;6.934;2022-12-07T11:07:53;9.23;;;5.50;;
12812;SDS011;6471;50.932;6.934;2022-12-07T11:12:38;7.50;;;5.10;;
12812;SDS011;6471;50.932;6.934;2022-12-07T11:15:21;9.37;;;5.53;;
12812;SDS011;6471;50.932;6.934;2022-12-07T11:18:06;9.87;;;5.53;;
12812;SDS011;6471;50.932;6.934;2022-12-07T11:28:11;9.80;;;5.73;;
12812;SDS011;6471;50.932;6.934;2022-12-07T11:30:42;9.33;;;5.43;;
12812;SDS011;6471;50.932;6.934;2022-12-07T11:35:46;7.37;;;4.70;;
12812;SDS011;6471;50.932;6.934;2022-12-07T11:38:22;9.57;;;5.07;;
12812;SDS011;6471;50.932;6.934;2022-12-07T11:40:51;9.53;;;5.37;;
12812;SDS011;6471;50.932;6.934;2022-12-07T11:43:29;9.63;;;6.23;;
12812;SDS011;6471;50.932;6.934;2022-12-07T11:45:59;9.47;;;5.30;;
12812;SDS011;6471;50.932;6.934;2022-12-07T11:48:32;7.27;;;4.63;;
12812;SDS011;6471;50.932;6.934;2022-12-07T11:51:00;9.90;;;4.80;;
12812;SDS011;6471;50.932;6.934;2022-12-07T11:53:33;7.73;;;5.03;;
12812;SDS011;6471;50.932;6.934;2022-12-07T11:56:03;10.40;;;4.77;;
12812;SDS011;6471;50.932;6.934;2022-12-07T12:06:40;6.83;;;4.53;;
12812;SDS011;6471;50.932;6.934;2022-12-07T12:09:11;11.60;;;5.30;;
12812;SDS011;6471;50.932;6.934;2022-12-07T12:21:41;14.77;;;7.70;;
12812;SDS011;6471;50.932;6.934;2022-12-07T12:26:37;13.33;;;6.50;;
12812;SDS011;6471;50.932;6.934;2022-12-07T12:29:17;11.83;;;6.83;;
12812;SDS011;6471;50.932;6.934;2022-12-07T12:31:46;9.60;;;6.50;;
12812;SDS011;6471;50.932;6.934;2022-12-07T12:34:30;11.50;;;6.60;;
12812;SDS011;6471;50.932;6.934;2022-12-07T12:36:56;11.23;;;6.33;;
12812;SDS011;6471;50.932;6.934;2022-12-07T12:39:22;11.50;;;7.30;;
12812;SDS011;6471;50.932;6.934;2022-12-07T12:46:53;12.37;;;7.00;;
12812;SDS011;6471;50.932;6.934;2022-12-07T12:54:18;10.57;;;6.20;;
12812;SDS011;6471;50.932;6.934;2022-12-07T12:57:30;13.27;;;7.30;;
12812;SDS011;6471;50.932;6.934;2022-12-07T13:04:59;10.20;;;5.70;;
12812;SDS011;6471;50.932;6.934;2022-12-07T13:10:20;9.00;;;5.67;;
12812;SDS011;6471;50.932;6.934;2022-12-07T13:15:39;10.37;;;5.57;;
12812;SDS011;6471;50.932;6.934;2022-12-07T13:20:54;15.47;;;5.90;;
12812;SDS011;6471;50.932;6.934;2022-12-07T13:23:24;11.77;;;6.17;;
12812;SDS011;6471;50.932;6.934;2022-12-07T13:25:58;6.97;;;5.13;;
12812;SDS011;6471;50.932;6.934;2022-12-07T13:28:26;9.63;;;6.00;;
12812;SDS011;6471;50.932;6.934;2022-12-07T13:31:00;9.47;;;5.10;;
12812;SDS011;6471;50.932;6.934;2022-12-07T13:33:28;8.43;;;5.97;;
12812;SDS011;6471;50.932;6.934;2022-12-07T13:35:54;8.80;;;5.23;;
12812;SDS011;6471;50.932;6.934;2022-12-07T13:38:34;10.03;;;6.03;;
12812;SDS011;6471;50.932;6.934;2022-12-07T13:46:14;8.77;;;5.87;;
12812;SDS011;6471;50.932;6.934;2022-12-07T13:48:48;8.60;;;5.57;;
12812;SDS011;6471;50.932;6.934;2022-12-07T13:51:19;11.20;;;6.53;;
12812;SDS011;6471;50.932;6.934;2022-12-07T13:53:55;11.20;;;5.83;;
12812;SDS011;6471;50.932;6.934;2022-12-07T13:56:31;9.73;;;6.13;;
12812;SDS011;6471;50.932;6.934;2022-12-07T13:59:04;8.93;;;5.57;;
12812;SDS011;6471;50.932;6.934;2022-12-07T14:01:35;10.73;;;5.47;;
12812;SDS011;6471;50.932;6.934;2022-12-07T14:06:50;7.53;;;4.93;;
12812;SDS011;6471;50.932;6.934;2022-12-07T14:09:25;7.27;;;4.53;;
12812;SDS011;6471;50.932;6.934;2022-12-07T14:12:05;6.03;;;4.17;;
12812;SDS011;6471;50.932;6.934;2022-12-07T14:14:31;7.07;;;4.30;;
12812;SDS011;6471;50.932;6.934;2022-12-07T14:16:59;8.43;;;4.87;;
12812;SDS011;6471;50.932;6.934;2022-12-07T14:19:41;6.90;;;4.77;;
12812;SDS011;6471;50.932;6.934;2022-12-07T14:22:08;8.47;;;5.43;;
12812;SDS011;6471;50.932;6.934;2022-12-07T14:24:46;7.70;;;4.90;;
12812;SDS011;6471;50.932;6.934;2022-12-07T14:29:45;6.67;;;4.70;;
12812;SDS011;6471;50.932;6.934;2022-12-07T14:32:25;7.07;;;5.00;;
12812;SDS011;6471;50.932;6.934;2022-12-07T14:35:11;8.60;;;5.03;;
12812;SDS011;6471;50.932;6.934;2022-12-07T14:37:38;8.97;;;5.63;;
12812;SDS011;6471;50.932;6.934;2022-12-07T14:40:05;16.73;;;8.13;;
12812;SDS011;6471;50.932;6.934;2022-12-07T14:42:32;11.17;;;7.10;;
12812;SDS011;6471;50.932;6.934;2022-12-07T14:44:58;8.23;;;6.27;;
12812;SDS011;6471;50.932;6.934;2022-12-07T14:47:25;9.30;;;5.53;;
12812;SDS011;6471;50.932;6.934;2022-12-07T14:49:51;9.40;;;6.07;;
12812;SDS011;6471;50.932;6.934;2022-12-07T14:52:21;9.23;;;5.10;;
12812;SDS011;6471;50.932;6.934;2022-12-07T14:54:48;8.47;;;5.33;;
12812;SDS011;6471;50.932;6.934;2022-12-07T14:57:14;6.80;;;4.90;;
12812;SDS011;6471;50.932;6.934;2022-12-07T14:59:41;11.33;;;6.37;;
12812;SDS011;6471;50.932;6.934;2022-12-07T15:02:11;9.27;;;5.83;;
12812;SDS011;6471;50.932;6.934;2022-12-07T15:04:40;7.37;;;4.83;;
12812;SDS011;6471;50.932;6.934;2022-12-07T15:07:20;7.23;;;4.70;;
12812;SDS011;6471;50.932;6.934;2022-12-07T15:09:48;9.30;;;6.27;;
12812;SDS011;6471;50.932;6.934;2022-12-07T15:12:14;8.63;;;5.90;;
12812;SDS011;6471;50.932;6.934;2022-12-07T15:14:54;8.07;;;6.27;;
12812;SDS011;6471;50.932;6.934;2022-12-07T15:32:48;9.97;;;6.73;;
12812;SDS011;6471;50.932;6.934;2022-12-07T15:41:48;11.50;;;7.90;;
12812;SDS011;6471;50.932;6.934;2022-12-07T15:44:23;9.37;;;6.73;;
12812;SDS011;6471;50.932;6.934;2022-12-07T15:47:08;9.60;;;5.60;;
12812;SDS011;6471;50.932;6.934;2022-12-07T15:49:37;8.10;;;5.33;;
12812;SDS011;6471;50.932;6.934;2022-12-07T15:52:03;7.10;;;5.13;;
12812;SDS011;6471;50.932;6.934;2022-12-07T15:54:38;7.07;;;4.73;;
12812;SDS011;6471;50.932;6.934;2022-12-07T15:57:04;6.60;;;4.63;;
12812;SDS011;6471;50.932;6.934;2022-12-07T15:59:33;8.03;;;5.30;;
12812;SDS011;6471;50.932;6.934;2022-12-07T16:02:30;6.40;;;4.60;;
12812;SDS011;6471;50.932;6.934;2022-12-07T16:05:05;5.90;;;4.57;;
12812;SDS011;6471;50.932;6.934;2022-12-07T16:07:31;6.00;;;4.20;;
12812;SDS011;6471;50.932;6.934;2022-12-07T16:23:03;9.13;;;5.43;;
12812;SDS011;6471;50.932;6.934;2022-12-07T16:29:16;6.77;;;5.00;;
12812;SDS011;6471;50.932;6.934;2022-12-07T16:35:45;9.00;;;4.50;;
12812;SDS011;6471;50.932;6.934;2022-12-07T16:41:10;4.53;;;3.50;;
12812;SDS011;6471;50.932;6.934;2022-12-07T16:47:33;3.67;;;2.80;;
12812;SDS011;6471;50.932;6.934;2022-12-07T16:50:06;3.90;;;2.73;;
12812;SDS011;6471;50.932;6.934;2022-12-07T16:52:52;2.97;;;2.40;;
12812;SDS011;6471;50.932;6.934;2022-12-07T16:58:36;3.33;;;2.50;;
12812;SDS011;6471;50.932;6.934;2022-12-07T17:01:19;2.90;;;2.40;;
12812;SDS011;6471;50.932;6.934;2022-12-07T17:03:57;3.23;;;2.30;;
12812;SDS011;6471;50.932;6.934;2022-12-07T17:06:41;2.47;;;2.20;;
12812;SDS011;6471;50.932;6.934;2022-12-07T17:12:32;3.67;;;2.50;;
12812;SDS011;6471;50.932;6.934;2022-12-07T17:14:58;3.13;;;2.50;;
12812;SDS011;6471;50.932;6.934;2022-12-07T17:17:45;3.13;;;2.50;;
12812;SDS011;6471;50.932;6.934;2022-12-07T17:20:14;2.93;;;2.63;;
12812;SDS011;6471;50.932;6.934;2022-12-07T17:22:41;4.90;;;2.60;;
12812;SDS011;6471;50.932;6.934;2022-12-07T17:25:07;5.27;;;3.40;;
12812;SDS011;6471;50.932;6.934;2022-12-07T17:27:34;4.50;;;3.20;;
12812;SDS011;6471;50.932;6.934;2022-12-07T17:30:12;5.03;;;3.83;;
12812;SDS011;6471;50.932;6.934;2022-12-07T17:32:38;4.53;;;3.40;;
12812;SDS011;6471;50.932;6.934;2022-12-07T17:49:48;5.73;;;3.40;;
12812;SDS011;6471;50.932;6.934;2022-12-07T17:52:22;4.70;;;3.20;;
12812;SDS011;6471;50.932;6.934;2022-12-07T17:55:07;5.90;;;4.07;;
12812;SDS011;6471;50.932;6.934;2022-12-07T17:57:33;5.57;;;4.10;;
12812;SDS011;6471;50.932;6.934;2022-12-07T18:00:03;4.73;;;3.83;;